Time;durP1;ratioP1;P1;durP2;ratioP2;P2;SDS_P1;SDS_P2;PMS_P1;PMS_P2;Temp;Humidity;BMP_temperature;BMP_pressure;BME280_temperature;BME280_humidity;BME280_pressure;Samples;Min_cycle;Max_cycle;Signal;HPM_P1;HPM_P2
2021/12/08 00:01:30;;;;;;;5.00;3.30;;;-1.00;91.10;;;;;;5042582;28;20254;-87
2021/12/08 00:04:04;;;;;;;5.40;3.33;;;-1.00;91.10;;;;;;5041165;28;20201;-87
2021/12/08 00:06:31;;;;;;;5.50;3.70;;;-1.10;91.30;;;;;;5049077;28;20235;-90
2021/12/08 00:09:05;;;;;;;6.30;3.70;;;-1.10;91.40;;;;;;5045107;28;20213;-87
2021/12/08 00:14:16;;;;;;;4.63;3.30;;;-1.10;91.50;;;;;;5034724;28;20688;-88
2021/12/08 00:16:44;;;;;;;4.60;3.10;;;-1.20;91.70;;;;;;5045921;28;20226;-87
2021/12/08 00:19:11;;;;;;;3.90;3.10;;;-1.20;91.70;;;;;;5040847;28;20195;-86
2021/12/08 00:21:38;;;;;;;3.77;3.20;;;-1.20;91.90;;;;;;5021145;28;20573;-87
2021/12/08 00:24:08;;;;;;;4.07;3.13;;;-1.10;91.80;;;;;;5042581;28;20194;-87
2021/12/08 00:26:36;;;;;;;5.50;3.60;;;-1.10;91.50;;;;;;5043313;28;20901;-87
2021/12/08 00:29:04;;;;;;;6.53;3.90;;;-1.10;91.60;;;;;;5024902;28;20248;-87
2021/12/08 00:31:31;;;;;;;4.83;3.73;;;-1.10;91.60;;;;;;5033874;28;20685;-88
2021/12/08 00:33:58;;;;;;;4.27;3.43;;;-1.20;91.80;;;;;;5047504;28;20212;-88
2021/12/08 00:36:31;;;;;;;6.57;3.40;;;-1.10;91.70;;;;;;5037389;28;20234;-87
2021/12/08 00:39:00;;;;;;;4.50;3.30;;;-1.10;91.70;;;;;;5039175;28;20198;-87
2021/12/08 00:41:28;;;;;;;6.43;3.50;;;-1.10;91.60;;;;;;5034080;28;20236;-87
2021/12/08 00:43:55;;;;;;;4.57;3.40;;;-1.10;91.40;;;;;;5044113;28;20234;-87
2021/12/08 00:46:23;;;;;;;5.27;3.80;;;-1.10;91.60;;;;;;5031544;28;20268;-88
2021/12/08 00:48:51;;;;;;;3.80;3.40;;;-1.10;91.70;;;;;;5043025;28;20204;-87
2021/12/08 00:51:18;;;;;;;5.60;3.20;;;-1.10;91.70;;;;;;5039248;28;20238;-88
2021/12/08 00:53:46;;;;;;;4.20;3.10;;;-1.10;91.70;;;;;;5040383;28;20682;-86
2021/12/08 00:56:14;;;;;;;5.03;3.43;;;-1.10;91.60;;;;;;5025000;28;20233;-87
2021/12/08 00:58:43;;;;;;;4.20;3.40;;;-1.10;91.40;;;;;;5038051;28;20210;-88
2021/12/08 01:01:12;;;;;;;3.80;3.10;;;-1.10;91.30;;;;;;5031642;28;20576;-88
2021/12/08 01:03:39;;;;;;;4.00;3.10;;;-1.10;91.50;;;;;;5019817;28;20213;-87
2021/12/08 01:06:07;;;;;;;4.83;3.13;;;-1.20;91.40;;;;;;5033176;28;20285;-87
2021/12/08 01:08:35;;;;;;;3.17;2.70;;;-1.10;91.30;;;;;;5037942;28;20198;-87
2021/12/08 01:11:05;;;;;;;4.23;3.00;;;-1.20;91.30;;;;;;5035069;28;20190;-87
2021/12/08 01:13:32;;;;;;;4.53;3.10;;;-1.10;91.40;;;;;;5038704;28;20206;-88
2021/12/08 01:16:04;;;;;;;4.93;3.30;;;-1.10;91.40;;;;;;5033760;28;20195;-88
2021/12/08 01:18:32;;;;;;;3.97;2.70;;;-1.20;91.60;;;;;;5045811;28;20201;-88
2021/12/08 01:21:02;;;;;;;6.40;3.63;;;-1.10;91.60;;;;;;5043013;28;20532;-87
2021/12/08 01:23:30;;;;;;;5.37;2.93;;;-1.20;91.80;;;;;;5025720;28;20203;-87
2021/12/08 01:25:58;;;;;;;4.90;3.53;;;-1.30;92.10;;;;;;5036530;28;20198;-88
2021/12/08 01:28:25;;;;;;;6.53;3.60;;;-1.40;92.50;;;;;;5024601;28;20248;-87
2021/12/08 01:30:54;;;;;;;4.20;3.20;;;-1.30;92.70;;;;;;5046948;28;20202;-88
2021/12/08 01:33:25;;;;;;;5.37;3.30;;;-1.30;92.60;;;;;;5043495;28;20212;-88
2021/12/08 01:35:52;;;;;;;4.53;3.47;;;-1.20;92.80;;;;;;5043151;28;20686;-91
2021/12/08 01:38:19;;;;;;;4.40;3.40;;;-1.10;92.50;;;;;;5031882;28;20242;-87
2021/12/08 01:41:00;;;;;;;4.93;3.70;;;-1.00;92.30;;;;;;5044590;28;20669;-89
2021/12/08 01:43:42;;;;;;;4.03;2.97;;;-1.00;92.20;;;;;;5036185;28;20231;-87
2021/12/08 01:46:11;;;;;;;4.97;3.30;;;-0.90;92.00;;;;;;5040936;28;20234;-87
2021/12/08 01:48:42;;;;;;;8.63;3.30;;;-1.00;91.80;;;;;;5034800;28;20259;-91
2021/12/08 01:51:12;;;;;;;4.70;3.50;;;-1.00;91.70;;;;;;5041192;28;20232;-87
2021/12/08 01:53:40;;;;;;;4.87;3.00;;;-1.00;91.90;;;;;;5029657;28;20202;-88
2021/12/08 01:56:08;;;;;;;5.27;3.40;;;-1.10;91.70;;;;;;5030235;28;20191;-86
2021/12/08 01:58:35;;;;;;;3.90;3.00;;;-1.10;92.10;;;;;;5039613;28;20575;-87
2021/12/08 02:01:05;;;;;;;4.73;3.50;;;-1.10;91.80;;;;;;5038332;28;20668;-86
2021/12/08 02:03:33;;;;;;;4.10;2.90;;;-1.10;91.90;;;;;;5032708;28;20209;-86
2021/12/08 02:06:06;;;;;;;6.53;3.50;;;-1.30;92.10;;;;;;5023533;28;20604;-87
2021/12/08 02:08:34;;;;;;;5.30;3.33;;;-1.40;92.50;;;;;;5031265;28;20619;-86
2021/12/08 02:11:03;;;;;;;3.80;3.10;;;-1.40;93.00;;;;;;5027571;28;20295;-86
2021/12/08 02:13:36;;;;;;;4.33;3.20;;;-1.40;92.90;;;;;;5041263;28;20207;-86
2021/12/08 02:16:04;;;;;;;4.30;2.83;;;-1.40;92.60;;;;;;5045303;28;20274;-85
2021/12/08 02:18:32;;;;;;;3.90;2.90;;;-1.40;92.70;;;;;;5025940;28;20275;-87
2021/12/08 02:21:02;;;;;;;5.00;3.43;;;-1.50;92.90;;;;;;5022375;28;20217;-85
2021/12/08 02:23:30;;;;;;;3.93;2.90;;;-1.50;93.00;;;;;;5033615;28;20198;-86
2021/12/08 02:25:58;;;;;;;3.93;3.07;;;-1.50;93.40;;;;;;5034966;28;20206;-85
2021/12/08 02:28:25;;;;;;;5.03;3.10;;;-1.40;93.30;;;;;;5035850;28;20609;-86
2021/12/08 02:30:58;;;;;;;4.40;3.07;;;-1.20;93.00;;;;;;5039397;28;20230;-86
2021/12/08 02:47:16;;;;;;;5.90;2.87;;;-0.80;91.10;;;;;;5030198;28;20225;-86
2021/12/08 02:49:43;;;;;;;3.60;2.77;;;-0.80;91.00;;;;;;5040214;28;20199;-86
2021/12/08 02:52:14;;;;;;;4.17;2.93;;;-0.80;90.70;;;;;;5035567;28;20224;-86
2021/12/08 02:54:45;;;;;;;3.53;2.63;;;-0.90;90.80;;;;;;5041299;28;20195;-85
2021/12/08 02:57:13;;;;;;;3.43;2.60;;;-0.90;90.80;;;;;;5040417;28;20701;-87
2021/12/08 02:59:41;;;;;;;3.47;2.80;;;-1.00;91.10;;;;;;5039472;28;20199;-86
2021/12/08 03:02:09;;;;;;;5.70;3.23;;;-1.00;91.10;;;;;;5034921;28;20224;-86
2021/12/08 03:04:37;;;;;;;3.90;2.77;;;-1.20;91.40;;;;;;5037360;28;20203;-86
2021/12/08 03:07:06;;;;;;;4.47;2.97;;;-1.30;91.50;;;;;;5031639;28;20225;-87
2021/12/08 03:09:34;;;;;;;5.07;3.00;;;-1.10;91.30;;;;;;5016501;28;20630;-86
2021/12/08 03:12:03;;;;;;;3.67;2.80;;;-1.00;91.10;;;;;;5037044;28;20232;-86
2021/12/08 03:14:30;;;;;;;5.93;3.40;;;-1.10;91.10;;;;;;5039200;28;20559;-86
2021/12/08 03:17:00;;;;;;;4.27;2.93;;;-1.20;91.10;;;;;;5020154;28;20218;-85
2021/12/08 03:19:29;;;;;;;4.80;2.87;;;-1.20;91.30;;;;;;5040310;28;20206;-86
2021/12/08 03:21:57;;;;;;;4.13;2.90;;;-1.00;91.10;;;;;;5037852;28;20228;-87
2021/12/08 03:24:31;;;;;;;4.70;3.00;;;-1.00;90.60;;;;;;5048498;28;20676;-86
2021/12/08 03:27:09;;;;;;;4.00;2.73;;;-0.80;90.60;;;;;;5043297;28;20239;-86
2021/12/08 03:29:45;;;;;;;3.87;2.83;;;-0.80;90.50;;;;;;5024235;28;20225;-86
2021/12/08 03:32:15;;;;;;;3.40;2.80;;;-0.60;90.30;;;;;;5041467;28;20225;-86
2021/12/08 03:34:51;;;;;;;4.53;3.10;;;-0.60;89.40;;;;;;5047492;28;20206;-85
2021/12/08 03:37:21;;;;;;;3.50;2.90;;;-0.60;90.00;;;;;;5044294;28;20229;-86
2021/12/08 03:39:49;;;;;;;7.00;3.43;;;-0.50;89.50;;;;;;5042009;28;20217;-86
2021/12/08 03:42:18;;;;;;;4.07;2.80;;;-0.50;89.50;;;;;;5041836;28;20563;-86
2021/12/08 03:44:46;;;;;;;4.00;3.20;;;-0.60;90.10;;;;;;5052320;28;20302;-86
2021/12/08 03:47:17;;;;;;;3.80;2.80;;;-0.60;89.60;;;;;;5050698;28;20223;-85
2021/12/08 03:49:46;;;;;;;4.23;3.17;;;-0.50;89.70;;;;;;5030831;28;20217;-85
2021/12/08 03:52:13;;;;;;;3.37;2.90;;;-0.40;88.90;;;;;;5050619;28;20223;-86
2021/12/08 03:54:40;;;;;;;5.13;2.97;;;-0.30;88.60;;;;;;5040077;28;20213;-85
2021/12/08 03:57:08;;;;;;;4.33;3.23;;;-0.30;88.40;;;;;;5041691;28;20224;-86
2021/12/08 03:59:38;;;;;;;4.00;3.20;;;-0.40;87.90;;;;;;5050957;28;20977;-85
2021/12/08 04:02:06;;;;;;;5.23;3.10;;;-0.30;89.30;;;;;;5041716;28;20224;-86
2021/12/08 04:04:41;;;;;;;4.20;2.93;;;-0.20;88.30;;;;;;5051167;28;20576;-85
2021/12/08 04:07:08;;;;;;;4.37;3.00;;;-0.20;87.30;;;;;;5049153;28;20236;-85
2021/12/08 04:09:39;;;;;;;3.93;3.23;;;-0.20;87.00;;;;;;5039191;28;20200;-85
2021/12/08 04:12:08;;;;;;;5.97;3.20;;;-0.20;87.40;;;;;;5042594;28;20220;-87
2021/12/08 04:14:40;;;;;;;4.33;3.20;;;-0.30;87.20;;;;;;5052607;28;20198;-85
2021/12/08 04:17:11;;;;;;;4.93;3.43;;;-0.30;87.70;;;;;;5041385;28;20228;-85
2021/12/08 04:19:40;;;;;;;5.13;3.20;;;-0.40;87.90;;;;;;5047095;28;20205;-86
2021/12/08 04:22:12;;;;;;;5.77;3.67;;;-0.40;88.40;;;;;;5033724;28;20230;-86
2021/12/08 04:24:39;;;;;;;4.77;3.60;;;-0.40;89.00;;;;;;5037822;28;20207;-91
2021/12/08 04:27:13;;;;;;;4.77;3.20;;;-0.50;89.00;;;;;;5048228;28;20229;-85
2021/12/08 04:29:43;;;;;;;4.67;3.10;;;-0.40;90.00;;;;;;5037950;28;20228;-85
2021/12/08 04:32:15;;;;;;;4.47;3.23;;;-0.40;88.40;;;;;;5030568;28;20242;-86
2021/12/08 04:34:45;;;;;;;4.43;3.30;;;-0.40;89.30;;;;;;5051917;28;20232;-86
2021/12/08 04:37:20;;;;;;;6.53;3.27;;;-0.50;89.90;;;;;;5050762;28;20592;-85
2021/12/08 04:39:58;;;;;;;5.33;3.47;;;-0.50;88.90;;;;;;5044182;28;20277;-85
2021/12/08 04:42:38;;;;;;;4.20;3.30;;;-0.40;89.50;;;;;;5036006;28;20218;-85
2021/12/08 04:45:15;;;;;;;3.77;3.10;;;-0.60;90.20;;;;;;5053644;28;20228;-84
2021/12/08 04:48:03;;;;;;;6.10;3.40;;;-0.70;90.50;;;;;;5045757;28;20268;-87
2021/12/08 04:50:49;;;;;;;5.07;3.17;;;-0.60;90.80;;;;;;5042340;28;20202;-86
2021/12/08 04:53:33;;;;;;;4.07;3.20;;;-0.30;90.40;;;;;;5036742;28;20219;-85
2021/12/08 05:02:15;;;;;;;5.03;3.40;;;-0.10;88.80;;;;;;5046513;28;20227;-87
2021/12/08 05:04:56;;;;;;;4.07;3.40;;;-0.10;88.00;;;;;;5041985;28;20204;-87
2021/12/08 05:07:34;;;;;;;4.70;3.37;;;-0.10;88.70;;;;;;5038840;28;20320;-85
2021/12/08 05:10:08;;;;;;;5.43;3.43;;;-0.20;88.60;;;;;;5040344;28;20206;-86
2021/12/08 05:12:38;;;;;;;5.37;3.50;;;-0.30;89.70;;;;;;5041556;28;20228;-86
2021/12/08 05:15:09;;;;;;;3.97;3.57;;;-0.20;89.40;;;;;;5023028;28;20204;-86
2021/12/08 05:17:42;;;;;;;5.07;3.57;;;0.00;87.90;;;;;;5022264;28;20699;-86
2021/12/08 05:20:14;;;;;;;5.93;3.70;;;0.10;87.70;;;;;;5029111;28;20201;-86
2021/12/08 05:22:45;;;;;;;4.07;3.37;;;0.20;85.90;;;;;;5044544;28;20223;-86
2021/12/08 05:25:20;;;;;;;4.43;3.47;;;0.20;86.30;;;;;;5043440;28;20199;-84
2021/12/08 05:27:55;;;;;;;5.30;3.70;;;0.30;86.00;;;;;;5030042;28;20400;-86
2021/12/08 05:30:26;;;;;;;4.43;3.40;;;0.40;86.00;;;;;;5037113;28;20194;-86
2021/12/08 05:32:55;;;;;;;4.53;3.23;;;0.30;86.00;;;;;;5037910;28;20308;-87
2021/12/08 05:35:24;;;;;;;5.33;3.33;;;0.30;86.00;;;;;;5021643;28;20276;-85
2021/12/08 05:37:52;;;;;;;5.20;3.73;;;0.20;85.90;;;;;;5038436;28;20238;-88
2021/12/08 05:40:24;;;;;;;7.07;3.57;;;0.10;85.90;;;;;;5034401;28;20204;-86
2021/12/08 05:42:52;;;;;;;4.23;3.47;;;-0.10;87.00;;;;;;5028931;28;20238;-84
2021/12/08 05:45:21;;;;;;;5.70;3.80;;;0.00;89.00;;;;;;5022833;28;20220;-87
2021/12/08 05:47:51;;;;;;;5.27;3.37;;;0.10;88.90;;;;;;5029915;28;20236;-83
2021/12/08 05:50:24;;;;;;;5.73;3.87;;;0.20;87.80;;;;;;5046004;28;20209;-84
2021/12/08 05:52:53;;;;;;;4.07;3.60;;;0.30;86.70;;;;;;5049938;28;20597;-83
2021/12/08 05:55:21;;;;;;;5.47;3.87;;;0.20;86.00;;;;;;5046388;28;20239;-85
2021/12/08 05:57:48;;;;;;;3.90;3.50;;;0.00;88.60;;;;;;5044561;28;20232;-82
2021/12/08 06:00:21;;;;;;;4.87;3.67;;;0.00;90.00;;;;;;5042347;28;20558;-83
2021/12/08 06:02:48;;;;;;;4.43;3.30;;;0.20;89.50;;;;;;5035390;28;20768;-86
2021/12/08 06:05:16;;;;;;;5.13;3.83;;;0.30;88.50;;;;;;5037589;28;20212;-85
2021/12/08 06:07:46;;;;;;;4.30;3.50;;;0.10;89.30;;;;;;5043534;28;20578;-85
2021/12/08 06:10:17;;;;;;;4.40;3.40;;;0.00;90.10;;;;;;5020080;28;20237;-87
2021/12/08 06:12:45;;;;;;;4.43;3.17;;;0.00;90.40;;;;;;5013652;28;20238;-87
2021/12/08 06:15:14;;;;;;;3.73;2.80;;;0.20;90.10;;;;;;5040397;28;20201;-86
2021/12/08 06:17:41;;;;;;;3.80;2.93;;;0.40;87.00;;;;;;5031742;28;20696;-85
2021/12/08 06:20:51;;;;;;;3.43;2.77;;;0.50;87.70;;;;;;5034079;28;20289;-85
2021/12/08 06:23:20;;;;;;;4.60;3.10;;;0.70;87.60;;;;;;5029563;28;20225;-86
2021/12/08 06:25:47;;;;;;;3.67;2.83;;;0.60;86.50;;;;;;5025417;28;20285;-85
2021/12/08 06:28:14;;;;;;;4.53;3.00;;;0.60;87.50;;;;;;5032985;28;20701;-85
2021/12/08 06:30:45;;;;;;;5.33;3.17;;;0.70;87.10;;;;;;5031235;28;20202;-85
2021/12/08 06:33:13;;;;;;;4.23;2.90;;;0.80;86.90;;;;;;5015254;28;20230;-83
2021/12/08 06:35:51;;;;;;;4.33;3.27;;;0.90;86.40;;;;;;5031116;28;20194;-84
2021/12/08 06:38:22;;;;;;;4.33;3.10;;;0.90;86.40;;;;;;5025947;28;20787;-81
2021/12/08 06:40:53;;;;;;;5.43;3.43;;;0.90;86.40;;;;;;5033285;28;20578;-82
2021/12/08 06:43:23;;;;;;;5.77;3.60;;;1.00;86.40;;;;;;5029217;28;20246;-81
2021/12/08 06:45:53;;;;;;;4.73;3.67;;;1.00;86.40;;;;;;5044730;28;20210;-83
2021/12/08 06:48:23;;;;;;;4.67;3.67;;;1.00;86.40;;;;;;5036307;28;20240;-83
2021/12/08 06:50:54;;;;;;;5.87;4.40;;;0.90;86.40;;;;;;5042429;28;20206;-85
2021/12/08 06:53:23;;;;;;;5.30;4.10;;;1.00;86.40;;;;;;5036324;28;20234;-84
2021/12/08 06:55:53;;;;;;;8.37;4.63;;;0.90;86.40;;;;;;5039820;28;20255;-83
2021/12/08 06:58:24;;;;;;;5.40;3.80;;;0.80;86.40;;;;;;5034049;28;20222;-82
2021/12/08 07:01:02;;;;;;;7.63;4.33;;;0.80;87.50;;;;;;5038192;28;20563;-86
2021/12/08 07:03:43;;;;;;;4.23;2.80;;;0.90;86.40;;;;;;5032632;28;20229;-83
2021/12/08 07:06:30;;;;;;;5.77;4.27;;;0.90;85.20;;;;;;5037390;28;20198;-82
2021/12/08 07:09:00;;;;;;;6.47;5.13;;;1.00;86.70;;;;;;5034408;28;20801;-83
2021/12/08 07:11:28;;;;;;;10.73;5.63;;;1.20;86.20;;;;;;5038292;28;20233;-83
2021/12/08 07:13:57;;;;;;;9.10;5.50;;;1.20;86.60;;;;;;5044975;28;20248;-85
2021/12/08 07:16:28;;;;;;;5.57;3.60;;;1.10;86.50;;;;;;5045420;28;20304;-80
2021/12/08 07:19:01;;;;;;;4.80;3.20;;;1.10;86.50;;;;;;5046591;28;20207;-79
2021/12/08 07:21:32;;;;;;;4.00;3.60;;;1.20;86.60;;;;;;5037059;28;20233;-85
2021/12/08 07:24:04;;;;;;;4.93;3.47;;;1.30;86.60;;;;;;5043026;28;20223;-83
2021/12/08 07:26:34;;;;;;;5.43;3.70;;;1.20;86.60;;;;;;5025986;28;20231;-84
2021/12/08 07:29:02;;;;;;;6.33;3.67;;;1.00;87.50;;;;;;5043084;28;20221;-85
2021/12/08 07:31:33;;;;;;;5.70;3.53;;;0.80;88.30;;;;;;5028288;28;20235;-84
2021/12/08 07:34:05;;;;;;;4.33;3.50;;;0.80;88.50;;;;;;5027186;28;20202;-84
2021/12/08 07:36:33;;;;;;;4.23;3.53;;;0.80;88.40;;;;;;5028521;28;20237;-82
2021/12/08 07:39:02;;;;;;;5.87;3.50;;;0.80;89.10;;;;;;5045799;28;20206;-84
2021/12/08 07:41:34;;;;;;;4.20;3.60;;;0.90;89.00;;;;;;5035530;28;20269;-83
2021/12/08 07:44:05;;;;;;;6.43;3.77;;;1.20;86.60;;;;;;5043866;28;20226;-83
2021/12/08 07:46:35;;;;;;;6.70;4.17;;;1.10;86.70;;;;;;5021450;28;20246;-82
2021/12/08 07:49:07;;;;;;;5.17;3.63;;;1.20;86.60;;;;;;5024180;28;20584;-82
2021/12/08 07:51:41;;;;;;;4.43;3.77;;;1.30;87.90;;;;;;5035716;28;20219;-84
2021/12/08 07:54:11;;;;;;;6.20;4.00;;;1.40;88.20;;;;;;5037200;28;20201;-82
2021/12/08 07:56:43;;;;;;;4.67;3.93;;;1.70;86.90;;;;;;5051162;28;20232;-90
2021/12/08 08:02:36;;;;;;;6.07;3.73;;;2.10;84.60;;;;;;5037268;28;20265;-83
2021/12/08 08:05:08;;;;;;;7.90;3.70;;;2.30;84.00;;;;;;5037399;28;20193;-85
2021/12/08 08:07:37;;;;;;;4.57;3.33;;;2.30;84.70;;;;;;5037233;28;20233;-84
2021/12/08 08:10:13;;;;;;;6.93;3.40;;;2.10;85.50;;;;;;5035215;28;20227;-85
2021/12/08 08:12:43;;;;;;;4.63;2.90;;;2.00;84.10;;;;;;5042172;28;20275;-89
2021/12/08 08:15:16;;;;;;;5.40;3.10;;;2.10;82.80;;;;;;5062025;28;20204;-82
2021/12/08 08:17:45;;;;;;;3.47;2.80;;;2.30;81.20;;;;;;5053423;28;20198;-84
2021/12/08 08:22:58;;;;;;;5.40;2.90;;;2.50;78.30;;;;;;5035738;28;20226;-85
2021/12/08 08:25:49;;;;;;;7.00;3.83;;;2.70;78.10;;;;;;5040928;28;20190;-87
2021/12/08 08:31:53;;;;;;;4.13;2.90;;;3.00;78.70;;;;;;5038087;28;20232;-87
2021/12/08 08:34:21;;;;;;;6.63;3.57;;;3.00;81.60;;;;;;5055081;28;20205;-85
2021/12/08 08:36:50;;;;;;;5.57;2.90;;;3.20;80.60;;;;;;5054649;28;20679;-85
2021/12/08 10:57:31;;;;;;;7.77;3.20;;;3.70;68.40;;;;;;5547114;22;20244;-84
2021/12/08 11:00:07;;;;;;;16.30;3.90;;;3.60;66.80;;;;;;5064785;28;20196;-84
2021/12/08 11:02:47;;;;;;;6.93;3.37;;;3.70;65.00;;;;;;5056609;28;20223;-85
2021/12/08 11:05:41;;;;;;;8.80;3.40;;;3.80;66.40;;;;;;5060753;28;20661;-85
2021/12/08 11:08:12;;;;;;;8.53;3.33;;;3.80;66.30;;;;;;5060900;28;20772;-84
2021/12/08 11:10:41;;;;;;;8.33;3.60;;;3.70;66.30;;;;;;5058222;28;20202;-86
2021/12/08 11:13:11;;;;;;;7.33;3.87;;;3.60;68.30;;;;;;5057483;28;20234;-84
2021/12/08 11:15:39;;;;;;;11.73;3.27;;;3.60;68.30;;;;;;5058580;28;20316;-86
2021/12/08 11:18:16;;;;;;;9.30;3.83;;;3.70;68.50;;;;;;5058600;28;20600;-85
2021/12/08 11:20:49;;;;;;;7.23;3.53;;;3.60;68.30;;;;;;5059269;28;20209;-82
2021/12/08 11:23:28;;;;;;;8.17;3.17;;;3.70;68.40;;;;;;5057250;28;20226;-83
2021/12/08 11:25:57;;;;;;;9.47;2.93;;;3.70;68.40;;;;;;5056830;28;20202;-85
2021/12/08 11:28:34;;;;;;;6.40;3.13;;;3.60;67.50;;;;;;5058910;28;20248;-84
2021/12/08 11:31:08;;;;;;;7.37;3.50;;;3.50;68.20;;;;;;5060540;28;20223;-82
2021/12/08 11:33:37;;;;;;;5.43;3.40;;;3.40;68.10;;;;;;5061511;28;20201;-84
2021/12/08 11:36:11;;;;;;;5.87;3.30;;;3.40;68.10;;;;;;5062150;28;20201;-82
2021/12/08 11:38:38;;;;;;;6.77;3.10;;;3.40;68.10;;;;;;5053706;28;20660;-83
2021/12/08 11:41:24;;;;;;;7.57;3.80;;;3.50;68.10;;;;;;5055798;28;20212;-84
2021/12/08 11:43:54;;;;;;;9.03;3.40;;;3.50;68.10;;;;;;5034253;28;20305;-82
2021/12/08 11:46:22;;;;;;;5.37;3.13;;;3.40;68.10;;;;;;5034990;28;20697;-84
2021/12/08 11:49:09;;;;;;;11.87;4.03;;;3.40;70.00;;;;;;5035173;28;20578;-85
2021/12/08 11:55:01;;;;;;;7.97;3.57;;;3.30;74.60;;;;;;5020616;28;20218;-83
2021/12/08 11:57:34;;;;;;;4.40;3.37;;;3.40;75.10;;;;;;5053266;28;20211;-83
2021/12/08 12:00:41;;;;;;;7.63;3.57;;;3.40;73.00;;;;;;5037215;28;20194;-85
2021/12/08 12:03:19;;;;;;;7.60;3.53;;;3.50;71.50;;;;;;5038592;28;20194;-85
2021/12/08 12:05:49;;;;;;;6.50;3.30;;;3.40;73.60;;;;;;5038183;28;20208;-84
2021/12/08 12:08:20;;;;;;;7.73;3.27;;;3.70;75.00;;;;;;5036383;28;20603;-83
2021/12/08 12:10:56;;;;;;;11.00;4.40;;;3.70;72.90;;;;;;5020217;28;20285;-88
2021/12/08 12:13:25;;;;;;;6.93;3.60;;;3.80;72.30;;;;;;5034228;28;20214;-83
2021/12/08 12:15:58;;;;;;;5.30;2.90;;;3.80;73.00;;;;;;5035955;28;20195;-83
2021/12/08 12:18:35;;;;;;;5.60;2.90;;;3.50;69.50;;;;;;5036932;28;20207;-82
2021/12/08 12:21:14;;;;;;;3.97;3.20;;;3.30;71.50;;;;;;5017260;28;20253;-83
2021/12/08 12:23:55;;;;;;;3.83;2.70;;;3.20;75.20;;;;;;5028808;28;20191;-85
2021/12/08 12:26:37;;;;;;;4.37;2.47;;;3.20;75.00;;;;;;5030262;28;20209;-83
2021/12/08 12:29:37;;;;;;;3.93;2.77;;;3.40;74.60;;;;;;5022735;28;20226;-83
2021/12/08 12:35:48;;;;;;;4.30;2.67;;;3.40;76.20;;;;;;5055847;28;20184;-82
2021/12/08 12:38:15;;;;;;;5.47;3.53;;;3.40;76.30;;;;;;5038282;28;20214;-81
2021/12/08 12:44:18;;;;;;;5.30;3.53;;;2.90;80.50;;;;;;5229313;23;20232;-84
2021/12/08 12:47:20;;;;;;;4.37;3.40;;;2.70;82.10;;;;;;5059724;28;20226;-87
2021/12/08 12:50:21;;;;;;;5.63;3.90;;;2.90;82.70;;;;;;5053536;28;20221;-85
2021/12/08 12:52:53;;;;;;;10.57;3.80;;;3.10;82.30;;;;;;5051617;28;20680;-84
2021/12/08 12:55:24;;;;;;;6.90;3.30;;;3.30;82.50;;;;;;5053366;28;20198;-89
2021/12/08 12:58:12;;;;;;;5.80;3.83;;;3.40;81.50;;;;;;5052619;28;20222;-84
2021/12/08 13:00:41;;;;;;;8.00;4.30;;;3.50;81.30;;;;;;5053380;28;20263;-88
2021/12/08 13:03:10;;;;;;;6.17;4.00;;;3.70;81.20;;;;;;5057988;28;20217;-84
2021/12/08 13:05:50;;;;;;;5.27;3.87;;;3.80;79.80;;;;;;5072116;28;20560;-85
2021/12/08 13:08:31;;;;;;;7.07;4.10;;;3.80;78.50;;;;;;5055559;28;20225;-83
2021/12/08 13:11:01;;;;;;;7.10;4.47;;;3.70;79.40;;;;;;5057451;28;20576;-89
2021/12/08 13:13:29;;;;;;;6.57;3.70;;;3.50;79.50;;;;;;5056254;28;20202;-85
2021/12/08 13:15:56;;;;;;;7.27;3.70;;;3.50;81.30;;;;;;5052559;28;20198;-85
2021/12/08 13:18:27;;;;;;;6.37;4.00;;;3.50;81.70;;;;;;5053588;28;20560;-84
2021/12/08 13:20:57;;;;;;;6.97;4.10;;;3.50;81.00;;;;;;5059829;28;20216;-85
2021/12/08 13:23:28;;;;;;;5.17;3.83;;;3.80;79.80;;;;;;5059179;28;20241;-86
2021/12/08 13:26:01;;;;;;;7.80;3.90;;;4.00;78.70;;;;;;5071014;28;20188;-89
2021/12/08 13:28:39;;;;;;;9.47;3.90;;;3.80;77.90;;;;;;5075777;28;20671;-85
2021/12/08 13:31:12;;;;;;;9.17;4.50;;;3.80;78.30;;;;;;5053949;28;20209;-87
2021/12/08 13:33:42;;;;;;;6.17;3.40;;;3.70;77.50;;;;;;5053689;28;20212;-85
2021/12/08 13:36:33;;;;;;;4.80;3.53;;;4.00;77.90;;;;;;5055743;28;20308;-86
2021/12/08 13:39:25;;;;;;;6.20;3.97;;;3.80;77.40;;;;;;5036460;28;20200;-86
2021/12/08 13:42:03;;;;;;;8.90;4.27;;;3.70;77.80;;;;;;5053334;28;20229;-86
2021/12/08 13:44:35;;;;;;;6.87;4.47;;;3.70;78.40;;;;;;5041196;28;20226;-86
2021/12/08 13:47:05;;;;;;;9.80;4.80;;;3.70;78.70;;;;;;5033369;28;20230;-86
2021/12/08 13:49:36;;;;;;;7.53;4.90;;;3.60;77.50;;;;;;5025603;28;20259;-85
2021/12/08 13:52:19;;;;;;;8.83;4.60;;;3.60;77.90;;;;;;5032000;28;20230;-83
2021/12/08 13:54:48;;;;;;;6.03;4.20;;;3.60;79.50;;;;;;5028986;28;20546;-86
2021/12/08 13:57:43;;;;;;;6.70;4.13;;;3.60;77.50;;;;;;5027516;28;20225;-86
2021/12/08 14:00:28;;;;;;;7.40;4.70;;;3.50;78.90;;;;;;5023166;28;20209;-88
2021/12/08 14:02:58;;;;;;;7.70;3.90;;;3.50;79.10;;;;;;5029072;28;20230;-84
2021/12/08 14:05:28;;;;;;;9.20;4.00;;;3.50;79.50;;;;;;5032641;28;20658;-86
2021/12/08 14:07:57;;;;;;;8.57;4.47;;;3.70;79.70;;;;;;5040200;28;20426;-85
2021/12/08 14:10:30;;;;;;;8.07;4.20;;;3.90;79.10;;;;;;5029364;28;20234;-85
2021/12/08 14:13:00;;;;;;;7.77;4.40;;;3.90;77.90;;;;;;5039787;28;20248;-86
2021/12/08 14:15:32;;;;;;;9.30;4.57;;;4.00;78.50;;;;;;5028678;28;20671;-84
2021/12/08 14:18:16;;;;;;;6.83;4.43;;;4.20;75.90;;;;;;5035790;28;20298;-88
2021/12/08 14:20:45;;;;;;;6.83;4.60;;;4.10;76.00;;;;;;5041732;28;20199;-86
2021/12/08 14:23:12;;;;;;;9.80;5.00;;;4.00;76.70;;;;;;5015932;28;20219;-85
2021/12/08 14:25:46;;;;;;;6.23;4.33;;;3.90;77.30;;;;;;5041127;28;20273;-85
2021/12/08 14:28:39;;;;;;;8.90;4.50;;;3.90;76.60;;;;;;5034374;28;20215;-85
2021/12/08 14:31:13;;;;;;;8.00;4.97;;;3.80;77.90;;;;;;5024027;28;20211;-86
2021/12/08 14:33:49;;;;;;;6.87;4.63;;;3.90;77.90;;;;;;5024221;28;20195;-83
2021/12/08 14:36:16;;;;;;;8.03;4.90;;;4.00;76.90;;;;;;5026994;28;20199;-82
2021/12/08 14:38:52;;;;;;;10.30;5.10;;;3.80;76.90;;;;;;5028782;28;20576;-85
2021/12/08 14:41:53;;;;;;;8.53;5.20;;;3.90;77.90;;;;;;5037731;28;20260;-86
2021/12/08 14:44:24;;;;;;;15.30;4.80;;;3.60;78.70;;;;;;5286497;23;20232;-82
2021/12/08 14:46:54;;;;;;;13.63;5.10;;;3.40;80.30;;;;;;5000314;28;20218;-82
2021/12/08 14:49:29;;;;;;;8.83;4.50;;;3.30;80.90;;;;;;4994399;28;20204;-83
2021/12/08 14:52:02;;;;;;;8.13;5.33;;;3.40;80.60;;;;;;5003898;28;20239;-89
2021/12/08 14:54:30;;;;;;;9.53;5.30;;;3.50;81.10;;;;;;5014734;28;20655;-83
2021/12/08 14:57:13;;;;;;;9.53;4.90;;;3.50;81.60;;;;;;5027594;28;20206;-84
2021/12/08 14:59:49;;;;;;;7.87;4.83;;;3.50;80.30;;;;;;5009168;28;20211;-85
2021/12/08 15:02:23;;;;;;;9.97;4.60;;;3.60;79.30;;;;;;4999212;28;20709;-82
2021/12/08 15:04:50;;;;;;;12.60;4.90;;;3.50;79.30;;;;;;4994807;28;20734;-82
2021/12/08 15:07:20;;;;;;;8.47;4.93;;;3.50;80.60;;;;;;4997868;28;20822;-83
2021/12/08 15:20:37;;;;;;;9.77;4.63;;;3.50;82.40;;;;;;4996550;28;20619;-83
2021/12/08 15:23:11;;;;;;;9.70;4.80;;;3.70;81.90;;;;;;4994320;28;20215;-84
2021/12/08 15:25:39;;;;;;;10.87;4.83;;;3.70;81.20;;;;;;4998475;28;20196;-86
2021/12/08 15:28:27;;;;;;;11.23;4.77;;;3.50;81.80;;;;;;4995988;28;20223;-84
2021/12/08 15:30:58;;;;;;;9.93;4.60;;;3.40;81.60;;;;;;4977788;28;20227;-82
2021/12/08 15:33:26;;;;;;;10.23;4.40;;;3.50;81.10;;;;;;4997342;28;20299;-83
2021/12/08 15:36:05;;;;;;;12.40;4.53;;;3.50;81.00;;;;;;4997552;28;20549;-84
2021/12/08 15:38:41;;;;;;;8.53;4.20;;;3.30;79.40;;;;;;5030425;28;20221;-82
2021/12/08 15:41:24;;;;;;;5.93;4.00;;;3.20;78.50;;;;;;5026720;28;20210;-83
2021/12/08 15:44:05;;;;;;;5.80;3.80;;;3.30;77.90;;;;;;5014815;28;20224;-81
2021/12/08 15:46:32;;;;;;;8.87;3.57;;;3.30;76.50;;;;;;5004053;28;20718;-83
2021/12/08 15:48:59;;;;;;;12.60;4.77;;;3.20;76.40;;;;;;5024222;28;20687;-81
2021/12/08 15:54:29;;;;;;;10.87;4.67;;;3.30;77.10;;;;;;5034341;28;20186;-82
2021/12/08 15:57:17;;;;;;;6.23;4.40;;;3.40;78.80;;;;;;5024152;28;20198;-82
2021/12/08 15:59:46;;;;;;;8.43;4.97;;;3.40;79.50;;;;;;5029558;28;20198;-83
2021/12/08 16:02:17;;;;;;;12.60;5.67;;;3.50;79.80;;;;;;5010875;28;20229;-87
2021/12/08 16:04:49;;;;;;;8.97;4.83;;;3.50;81.40;;;;;;5012133;28;20214;-84
2021/12/08 16:07:25;;;;;;;8.30;4.63;;;3.50;81.40;;;;;;5017563;28;20230;-82
2021/12/08 16:09:52;;;;;;;8.47;4.30;;;3.60;82.70;;;;;;5000166;28;20211;-83
2021/12/08 16:12:20;;;;;;;7.40;4.60;;;3.60;83.10;;;;;;5008377;28;20323;-87
2021/12/08 16:14:53;;;;;;;6.33;4.40;;;3.50;83.60;;;;;;5027781;28;20199;-84
2021/12/08 16:17:24;;;;;;;9.13;5.07;;;3.50;83.60;;;;;;5022692;28;20229;-91
2021/12/08 16:19:54;;;;;;;7.53;3.90;;;3.60;83.70;;;;;;4997899;28;20203;-84
2021/12/08 16:22:24;;;;;;;7.77;4.37;;;3.70;82.10;;;;;;5012886;28;20232;-85
2021/12/08 16:24:53;;;;;;;7.40;4.13;;;3.70;82.40;;;;;;5009174;28;20662;-83
2021/12/08 16:27:22;;;;;;;7.03;3.90;;;3.80;82.40;;;;;;5025629;28;20309;-86
2021/12/08 16:29:49;;;;;;;5.50;4.03;;;3.80;82.00;;;;;;5017359;28;20200;-82
2021/12/08 16:32:20;;;;;;;7.60;4.10;;;3.80;83.10;;;;;;5021155;28;20238;-84
2021/12/08 16:34:51;;;;;;;9.60;4.57;;;3.80;83.30;;;;;;5017521;28;20191;-82